SAS86N EKCH-LIRQ
Flight info
| Callsign | SAS86N |
|---|---|
| Flight time | 1h 37m |
| Altitude | 31000 |
| Route | SALLO M736 BAKDO/N0431F290 M736 INDOK/N0446F370 M736 MAG Z207 ALOSO/N0444F360 DCT BESNI DCT GIRIS/N0444F370 DCT DOBOG DCT LOMED |
| Aircraft | A319/M-SDE3FGHIRWY/LB1 |
Departure
| Time | 2026-04-22 11:10 |
|---|---|
| Airport | Copenhagen Kastrup Airport (EKCH) |
Arrival
| Time | 2026-04-22 12:48 |
|---|---|
| Airport | Florence Airport, Peretola (LIRQ) |
| Time | Latitude | Longitude | Altitude | Speed | Heading |
|---|---|---|---|---|---|
| 2026-04-22 10:40 | 55.62723 | 12.65326 | 25 ft | 0 kts | 17° |
| 2026-04-22 10:54 | 55.62715 | 12.65322 | 25 ft | 2 kts | 12° |
| 2026-04-22 10:55 | 55.62700 | 12.65318 | 25 ft | 2 kts | 4° |
| 2026-04-22 10:55 | 55.62685 | 12.65317 | 25 ft | 2 kts | 358° |
| 2026-04-22 10:55 | 55.62670 | 12.65318 | 25 ft | 2 kts | 0° |
| 2026-04-22 10:55 | 55.62655 | 12.65318 | 25 ft | 2 kts | 360° |
| 2026-04-22 10:56 | 55.62640 | 12.65318 | 25 ft | 2 kts | 0° |
| 2026-04-22 10:56 | 55.62625 | 12.65318 | 25 ft | 2 kts | 360° |
| 2026-04-22 10:56 | 55.62610 | 12.65318 | 25 ft | 2 kts | 1° |
| 2026-04-22 10:56 | 55.62605 | 12.65318 | 25 ft | 0 kts | 360° |
| 2026-04-22 10:58 | 55.62618 | 12.65318 | 25 ft | 5 kts | 2° |
| 2026-04-22 10:59 | 55.62628 | 12.65319 | 25 ft | 0 kts | 4° |
| 2026-04-22 11:01 | 55.62631 | 12.65319 | 25 ft | 3 kts | 5° |
| 2026-04-22 11:02 | 55.62653 | 12.65296 | 25 ft | 4 kts | 284° |
| 2026-04-22 11:02 | 55.62655 | 12.65244 | 25 ft | 4 kts | 265° |
| 2026-04-22 11:02 | 55.62621 | 12.65183 | 25 ft | 10 kts | 198° |
| 2026-04-22 11:02 | 55.62529 | 12.65178 | 25 ft | 13 kts | 175° |
| 2026-04-22 11:03 | 55.62433 | 12.65189 | 25 ft | 13 kts | 178° |
| 2026-04-22 11:03 | 55.62339 | 12.65193 | 25 ft | 13 kts | 180° |
| 2026-04-22 11:03 | 55.62245 | 12.65190 | 25 ft | 11 kts | 183° |
| 2026-04-22 11:03 | 55.62190 | 12.65162 | 26 ft | 2 kts | 201° |
| 2026-04-22 11:04 | 55.62180 | 12.65155 | 27 ft | 2 kts | 209° |
| 2026-04-22 11:04 | 55.62152 | 12.65119 | 29 ft | 4 kts | 220° |
| 2026-04-22 11:04 | 55.62135 | 12.65091 | 30 ft | 6 kts | 221° |
| 2026-04-22 11:04 | 55.62132 | 12.65087 | 30 ft | 7 kts | 221° |
| 2026-04-22 11:05 | 55.62073 | 12.65020 | 25 ft | 12 kts | 212° |
| 2026-04-22 11:05 | 55.62001 | 12.64942 | 25 ft | 11 kts | 212° |
| 2026-04-22 11:05 | 55.61935 | 12.64862 | 25 ft | 11 kts | 216° |
| 2026-04-22 11:05 | 55.61871 | 12.64791 | 25 ft | 10 kts | 212° |
| 2026-04-22 11:06 | 55.61813 | 12.64729 | 27 ft | 9 kts | 214° |
| 2026-04-22 11:06 | 55.61747 | 12.64649 | 27 ft | 14 kts | 213° |
| 2026-04-22 11:06 | 55.61659 | 12.64546 | 26 ft | 15 kts | 214° |
| 2026-04-22 11:06 | 55.61565 | 12.64432 | 26 ft | 16 kts | 214° |
| 2026-04-22 11:07 | 55.61467 | 12.64322 | 27 ft | 16 kts | 212° |
| 2026-04-22 11:07 | 55.61367 | 12.64213 | 27 ft | 17 kts | 213° |
| 2026-04-22 11:07 | 55.61265 | 12.64095 | 27 ft | 17 kts | 214° |
| 2026-04-22 11:07 | 55.61166 | 12.63978 | 26 ft | 18 kts | 211° |
| 2026-04-22 11:08 | 55.61055 | 12.63847 | 24 ft | 19 kts | 212° |
| 2026-04-22 11:08 | 55.60936 | 12.63710 | 23 ft | 20 kts | 214° |
| 2026-04-22 11:08 | 55.60813 | 12.63593 | 22 ft | 19 kts | 174° |
| 2026-04-22 11:08 | 55.60711 | 12.63750 | 22 ft | 19 kts | 129° |
| 2026-04-22 11:09 | 55.60676 | 12.63861 | 21 ft | 5 kts | 64° |
| 2026-04-22 11:09 | 55.60686 | 12.63880 | 21 ft | 0 kts | 41° |
| 2026-04-22 11:09 | 55.60691 | 12.63888 | 21 ft | 7 kts | 41° |
| 2026-04-22 11:10 | 55.60899 | 12.64208 | 23 ft | 74 kts | 40° |
| 2026-04-22 11:10 | 55.61462 | 12.65083 | 26 ft | 136 kts | 41° |
| 2026-04-22 11:10 | 55.62284 | 12.66378 | 271 ft | 164 kts | 37° |
| 2026-04-22 11:10 | 55.63140 | 12.67680 | 938 ft | 161 kts | 36° |
| 2026-04-22 11:11 | 55.63981 | 12.68990 | 1599 ft | 163 kts | 35° |
| 2026-04-22 11:11 | 55.64845 | 12.70350 | 2110 ft | 171 kts | 37° |
| 2026-04-22 11:11 | 55.65546 | 12.72235 | 2430 ft | 199 kts | 70° |
| 2026-04-22 11:11 | 55.65488 | 12.74841 | 2681 ft | 232 kts | 107° |
| 2026-04-22 11:12 | 55.64522 | 12.77313 | 3057 ft | 257 kts | 139° |
| 2026-04-22 11:12 | 55.62857 | 12.78771 | 3472 ft | 276 kts | 167° |
| 2026-04-22 11:12 | 55.60919 | 12.79349 | 4059 ft | 287 kts | 174° |
| 2026-04-22 11:12 | 55.58930 | 12.79725 | 4850 ft | 290 kts | 175° |
| 2026-04-22 11:13 | 55.56908 | 12.80056 | 5679 ft | 293 kts | 175° |
| 2026-04-22 11:13 | 55.54864 | 12.80364 | 6491 ft | 296 kts | 175° |
| 2026-04-22 11:13 | 55.52814 | 12.80656 | 7344 ft | 299 kts | 175° |
| 2026-04-22 11:13 | 55.50740 | 12.81205 | 8120 ft | 302 kts | 159° |
| 2026-04-22 11:14 | 55.48854 | 12.82841 | 8896 ft | 302 kts | 146° |
| 2026-04-22 11:14 | 55.47085 | 12.84799 | 9665 ft | 304 kts | 144° |
| 2026-04-22 11:14 | 55.45261 | 12.86822 | 10479 ft | 307 kts | 145° |
| 2026-04-22 11:14 | 55.43402 | 12.88802 | 10980 ft | 319 kts | 146° |
| 2026-04-22 11:15 | 55.41395 | 12.90861 | 11309 ft | 337 kts | 147° |
| 2026-04-22 11:15 | 55.39308 | 12.92941 | 11792 ft | 348 kts | 147° |
| 2026-04-22 11:15 | 55.37186 | 12.95018 | 12463 ft | 351 kts | 148° |
| 2026-04-22 11:15 | 55.35044 | 12.97099 | 13181 ft | 352 kts | 147° |
| 2026-04-22 11:16 | 55.32868 | 12.99205 | 13872 ft | 355 kts | 147° |
| 2026-04-22 11:16 | 55.30687 | 13.01312 | 14540 ft | 357 kts | 147° |
| 2026-04-22 11:16 | 55.28514 | 13.03410 | 15188 ft | 360 kts | 147° |
| 2026-04-22 11:16 | 55.26295 | 13.05548 | 15834 ft | 362 kts | 147° |
| 2026-04-22 11:17 | 55.24079 | 13.07679 | 16455 ft | 364 kts | 147° |
| 2026-04-22 11:17 | 55.21853 | 13.09821 | 17051 ft | 367 kts | 147° |
| 2026-04-22 11:17 | 55.19609 | 13.11975 | 17598 ft | 370 kts | 147° |
| 2026-04-22 11:17 | 55.17330 | 13.14158 | 18167 ft | 373 kts | 147° |
| 2026-04-22 11:18 | 55.15051 | 13.16340 | 18739 ft | 375 kts | 148° |
| 2026-04-22 11:18 | 55.12746 | 13.18543 | 19293 ft | 377 kts | 147° |
| 2026-04-22 11:18 | 55.10440 | 13.20745 | 19832 ft | 380 kts | 148° |
| 2026-04-22 11:18 | 55.08079 | 13.22998 | 20384 ft | 382 kts | 148° |
| 2026-04-22 11:19 | 55.05718 | 13.25246 | 20912 ft | 384 kts | 148° |
| 2026-04-22 11:19 | 55.03381 | 13.27467 | 21438 ft | 386 kts | 148° |
| 2026-04-22 11:19 | 55.00991 | 13.29736 | 21951 ft | 388 kts | 148° |
| 2026-04-22 11:19 | 54.98593 | 13.32007 | 22440 ft | 390 kts | 148° |
| 2026-04-22 11:20 | 54.96205 | 13.34270 | 22943 ft | 391 kts | 148° |
| 2026-04-22 11:20 | 54.93745 | 13.36451 | 23433 ft | 394 kts | 156° |
| 2026-04-22 11:20 | 54.91052 | 13.37458 | 23834 ft | 402 kts | 175° |
| 2026-04-22 11:20 | 54.88257 | 13.36903 | 24257 ft | 408 kts | 193° |
| 2026-04-22 11:21 | 54.85518 | 13.35415 | 24687 ft | 411 kts | 196° |
| 2026-04-22 11:21 | 54.82762 | 13.33848 | 25059 ft | 414 kts | 196° |
| 2026-04-22 11:21 | 54.80025 | 13.32302 | 25414 ft | 417 kts | 195° |
| 2026-04-22 11:21 | 54.77235 | 13.30747 | 25756 ft | 420 kts | 195° |
| 2026-04-22 11:22 | 54.74418 | 13.29192 | 26110 ft | 423 kts | 195° |
| 2026-04-22 11:22 | 54.71619 | 13.27436 | 26454 ft | 427 kts | 199° |
| 2026-04-22 11:22 | 54.68859 | 13.25500 | 26810 ft | 430 kts | 200° |
| 2026-04-22 11:22 | 54.66055 | 13.23511 | 27166 ft | 432 kts | 200° |
| 2026-04-22 11:23 | 54.63238 | 13.21538 | 27505 ft | 434 kts | 199° |
| 2026-04-22 11:23 | 54.60408 | 13.19580 | 27834 ft | 437 kts | 199° |
| 2026-04-22 11:23 | 54.57585 | 13.17646 | 28163 ft | 439 kts | 199° |
| 2026-04-22 11:23 | 54.54745 | 13.15710 | 28482 ft | 441 kts | 199° |
| 2026-04-22 11:24 | 54.51897 | 13.13776 | 28780 ft | 444 kts | 199° |
| 2026-04-22 11:24 | 54.49023 | 13.11829 | 29098 ft | 446 kts | 199° |
| 2026-04-22 11:24 | 54.46091 | 13.09843 | 29388 ft | 448 kts | 199° |
| 2026-04-22 11:24 | 54.43196 | 13.07870 | 29694 ft | 450 kts | 199° |
| 2026-04-22 11:25 | 54.40277 | 13.05877 | 29994 ft | 452 kts | 199° |
| 2026-04-22 11:25 | 54.37317 | 13.03859 | 30294 ft | 454 kts | 199° |
| 2026-04-22 11:25 | 54.34337 | 13.01831 | 30602 ft | 455 kts | 199° |
| 2026-04-22 11:25 | 54.31414 | 12.99844 | 30970 ft | 455 kts | 199° |
| 2026-04-22 11:26 | 54.28478 | 12.97850 | 31326 ft | 454 kts | 199° |
| 2026-04-22 11:26 | 54.25532 | 12.95852 | 31624 ft | 454 kts | 199° |
| 2026-04-22 11:26 | 54.22866 | 12.94050 | 31863 ft | 455 kts | 199° |
| 2026-04-22 11:26 | 54.20043 | 12.92146 | 32123 ft | 456 kts | 199° |
| 2026-04-22 11:27 | 54.17085 | 12.90152 | 32409 ft | 456 kts | 199° |
| 2026-04-22 11:27 | 54.14095 | 12.88139 | 32682 ft | 456 kts | 199° |
| 2026-04-22 11:27 | 54.11158 | 12.86166 | 32954 ft | 457 kts | 199° |
| 2026-04-22 11:27 | 54.08180 | 12.84171 | 33222 ft | 457 kts | 199° |
| 2026-04-22 11:28 | 54.05208 | 12.82181 | 33490 ft | 457 kts | 199° |
| 2026-04-22 11:28 | 54.02278 | 12.80221 | 33712 ft | 457 kts | 199° |
| 2026-04-22 11:28 | 53.99277 | 12.78217 | 33912 ft | 458 kts | 199° |
| 2026-04-22 11:28 | 53.96261 | 12.76206 | 34120 ft | 459 kts | 199° |
| 2026-04-22 11:29 | 53.93268 | 12.74212 | 34320 ft | 459 kts | 199° |
| 2026-04-22 11:29 | 53.90277 | 12.72222 | 34512 ft | 459 kts | 199° |
| 2026-04-22 11:29 | 53.87253 | 12.70214 | 34699 ft | 460 kts | 199° |
| 2026-04-22 11:29 | 53.84272 | 12.68240 | 34879 ft | 460 kts | 199° |
| 2026-04-22 11:30 | 53.81296 | 12.66271 | 35084 ft | 460 kts | 199° |
| 2026-04-22 11:30 | 53.78315 | 12.64303 | 35297 ft | 459 kts | 199° |
| 2026-04-22 11:30 | 53.75321 | 12.62328 | 35501 ft | 459 kts | 199° |
| 2026-04-22 11:30 | 53.72327 | 12.60356 | 35669 ft | 459 kts | 199° |
| 2026-04-22 11:31 | 53.69340 | 12.58394 | 35807 ft | 460 kts | 199° |
| 2026-04-22 11:31 | 53.66312 | 12.56406 | 35947 ft | 461 kts | 199° |
| 2026-04-22 11:31 | 53.63355 | 12.54467 | 36091 ft | 462 kts | 199° |
| 2026-04-22 11:31 | 53.60344 | 12.52497 | 36245 ft | 462 kts | 199° |
| 2026-04-22 11:32 | 53.57291 | 12.50501 | 36392 ft | 463 kts | 199° |
| 2026-04-22 11:32 | 53.54258 | 12.48522 | 36533 ft | 463 kts | 199° |
| 2026-04-22 11:32 | 53.51267 | 12.46574 | 36662 ft | 464 kts | 199° |
| 2026-04-22 11:32 | 53.48239 | 12.44604 | 36781 ft | 465 kts | 199° |
| 2026-04-22 11:33 | 53.45210 | 12.42635 | 36890 ft | 465 kts | 199° |
| 2026-04-22 11:33 | 53.42144 | 12.40646 | 37002 ft | 466 kts | 199° |
| 2026-04-22 11:33 | 53.39149 | 12.38707 | 37110 ft | 467 kts | 199° |
| 2026-04-22 11:33 | 53.36109 | 12.36741 | 37211 ft | 468 kts | 199° |
| 2026-04-22 11:34 | 53.33059 | 12.34772 | 37301 ft | 469 kts | 198° |
| 2026-04-22 11:34 | 53.26955 | 12.30838 | 37310 ft | 469 kts | 198° |
| 2026-04-22 11:35 | 53.20806 | 12.26891 | 37310 ft | 476 kts | 198° |
| 2026-04-22 11:35 | 53.14560 | 12.22893 | 37307 ft | 482 kts | 199° |
| 2026-04-22 11:36 | 53.08273 | 12.18880 | 37312 ft | 486 kts | 199° |
| 2026-04-22 11:36 | 53.01926 | 12.14798 | 37324 ft | 486 kts | 199° |
| 2026-04-22 11:37 | 52.95586 | 12.10789 | 37319 ft | 486 kts | 198° |
| 2026-04-22 11:37 | 52.89247 | 12.06820 | 37315 ft | 486 kts | 198° |
| 2026-04-22 11:38 | 52.82864 | 12.02800 | 37325 ft | 487 kts | 199° |
| 2026-04-22 11:38 | 52.73331 | 11.96787 | 37329 ft | 493 kts | 199° |
| 2026-04-22 11:39 | 52.67021 | 11.92989 | 37330 ft | 492 kts | 195° |
| 2026-04-22 11:39 | 52.52727 | 11.87948 | 37314 ft | 488 kts | 185° |
| 2026-04-22 11:40 | 52.25437 | 11.84086 | 37330 ft | 487 kts | 180° |
| 2026-04-22 11:40 | 51.99396 | 11.81940 | 37333 ft | 487 kts | 181° |
| 2026-04-22 11:41 | 51.72187 | 11.79333 | 37326 ft | 488 kts | 181° |
| 2026-04-22 11:41 | 51.38955 | 11.76317 | 37328 ft | 489 kts | 181° |
| 2026-04-22 11:42 | 51.32112 | 11.75688 | 37313 ft | 489 kts | 181° |
| 2026-04-22 11:42 | 51.25285 | 11.75067 | 37311 ft | 489 kts | 181° |
| 2026-04-22 11:43 | 51.18397 | 11.74445 | 37314 ft | 489 kts | 181° |
| 2026-04-22 11:43 | 51.11573 | 11.73830 | 37314 ft | 489 kts | 181° |
| 2026-04-22 11:44 | 51.04725 | 11.73215 | 37315 ft | 490 kts | 181° |
| 2026-04-22 11:44 | 50.98111 | 11.72622 | 37316 ft | 490 kts | 181° |
| 2026-04-22 11:45 | 50.91293 | 11.72013 | 37318 ft | 490 kts | 181° |
| 2026-04-22 11:45 | 50.84472 | 11.71406 | 37315 ft | 490 kts | 181° |
| 2026-04-22 11:46 | 50.77662 | 11.70800 | 37309 ft | 490 kts | 182° |
| 2026-04-22 11:46 | 50.70973 | 11.70138 | 37308 ft | 491 kts | 184° |
| 2026-04-22 11:47 | 50.64155 | 11.68706 | 37302 ft | 492 kts | 187° |
| 2026-04-22 11:47 | 50.57304 | 11.67149 | 37296 ft | 492 kts | 187° |
| 2026-04-22 11:48 | 50.33257 | 11.61736 | 37287 ft | 492 kts | 187° |
| 2026-04-22 11:48 | 50.07010 | 11.55894 | 37279 ft | 492 kts | 188° |
| 2026-04-22 11:49 | 49.81889 | 11.50353 | 37268 ft | 497 kts | 188° |
| 2026-04-22 11:49 | 49.72088 | 11.48208 | 37268 ft | 499 kts | 188° |
| 2026-04-22 11:50 | 49.65304 | 11.46728 | 37259 ft | 500 kts | 188° |
| 2026-04-22 11:50 | 49.58377 | 11.45222 | 37264 ft | 500 kts | 188° |
| 2026-04-22 11:51 | 49.51459 | 11.43722 | 37268 ft | 499 kts | 188° |
| 2026-04-22 11:51 | 49.44554 | 11.42229 | 37262 ft | 499 kts | 188° |
| 2026-04-22 11:52 | 49.37651 | 11.40741 | 37260 ft | 500 kts | 188° |
| 2026-04-22 11:52 | 49.30719 | 11.39250 | 37262 ft | 500 kts | 188° |
| 2026-04-22 11:53 | 49.23780 | 11.37764 | 37254 ft | 500 kts | 188° |
| 2026-04-22 11:53 | 49.16857 | 11.36284 | 37245 ft | 499 kts | 188° |
| 2026-04-22 11:54 | 49.09927 | 11.34808 | 37243 ft | 499 kts | 188° |
| 2026-04-22 11:54 | 49.02978 | 11.33330 | 37239 ft | 500 kts | 188° |
| 2026-04-22 11:55 | 48.96107 | 11.31872 | 37239 ft | 500 kts | 188° |
| 2026-04-22 11:55 | 48.89189 | 11.30410 | 37248 ft | 500 kts | 188° |
| 2026-04-22 11:56 | 48.82215 | 11.28939 | 37257 ft | 500 kts | 188° |
| 2026-04-22 11:56 | 48.75332 | 11.27493 | 37256 ft | 500 kts | 188° |
| 2026-04-22 11:57 | 48.68368 | 11.26033 | 37256 ft | 501 kts | 188° |
| 2026-04-22 11:57 | 48.61427 | 11.24592 | 37251 ft | 501 kts | 188° |
| 2026-04-22 11:58 | 48.54613 | 11.23215 | 37252 ft | 502 kts | 188° |
| 2026-04-22 11:58 | 48.47749 | 11.21829 | 37245 ft | 502 kts | 188° |
| 2026-04-22 11:59 | 48.40850 | 11.20436 | 37236 ft | 501 kts | 188° |
| 2026-04-22 11:59 | 48.33958 | 11.19047 | 37237 ft | 501 kts | 188° |
| 2026-04-22 12:00 | 48.27019 | 11.17654 | 37233 ft | 502 kts | 188° |
| 2026-04-22 12:00 | 48.20091 | 11.16267 | 37228 ft | 503 kts | 188° |
| 2026-04-22 12:01 | 48.13109 | 11.14874 | 37227 ft | 503 kts | 189° |
| 2026-04-22 12:01 | 48.06142 | 11.13487 | 37225 ft | 503 kts | 189° |
| 2026-04-22 12:02 | 47.99158 | 11.12096 | 37224 ft | 503 kts | 189° |
| 2026-04-22 12:02 | 47.92233 | 11.10722 | 37222 ft | 503 kts | 189° |
| 2026-04-22 12:03 | 47.85306 | 11.09354 | 37210 ft | 503 kts | 189° |
| 2026-04-22 12:03 | 47.78308 | 11.07974 | 37215 ft | 503 kts | 189° |
| 2026-04-22 12:04 | 47.71343 | 11.06605 | 37216 ft | 503 kts | 189° |
| 2026-04-22 12:04 | 47.56626 | 11.03729 | 37215 ft | 504 kts | 189° |
| 2026-04-22 12:05 | 47.31092 | 10.98767 | 37182 ft | 505 kts | 189° |
| 2026-04-22 12:05 | 47.24069 | 10.97408 | 37194 ft | 506 kts | 189° |
| 2026-04-22 12:06 | 47.17095 | 10.96063 | 37192 ft | 506 kts | 189° |
| 2026-04-22 12:06 | 47.10048 | 10.94709 | 37192 ft | 506 kts | 189° |
| 2026-04-22 12:07 | 47.03162 | 10.93389 | 37190 ft | 508 kts | 190° |
| 2026-04-22 12:07 | 46.96252 | 10.92068 | 37179 ft | 509 kts | 190° |
| 2026-04-22 12:08 | 46.89353 | 10.90752 | 37166 ft | 507 kts | 190° |
| 2026-04-22 12:08 | 46.82304 | 10.89582 | 37126 ft | 508 kts | 186° |
| 2026-04-22 12:09 | 46.75583 | 10.89447 | 37109 ft | 511 kts | 179° |
| 2026-04-22 12:09 | 46.68489 | 10.90518 | 37086 ft | 513 kts | 172° |
| 2026-04-22 12:10 | 46.61360 | 10.92324 | 37069 ft | 514 kts | 172° |
| 2026-04-22 12:10 | 46.54300 | 10.94093 | 37087 ft | 514 kts | 172° |
| 2026-04-22 12:11 | 46.47235 | 10.95843 | 37095 ft | 513 kts | 172° |
| 2026-04-22 12:11 | 46.40094 | 10.97600 | 37106 ft | 513 kts | 172° |
| 2026-04-22 12:12 | 46.32937 | 10.99350 | 37115 ft | 514 kts | 172° |
| 2026-04-22 12:12 | 46.26006 | 11.01044 | 37128 ft | 513 kts | 172° |
| 2026-04-22 12:13 | 46.18866 | 11.02781 | 37147 ft | 513 kts | 172° |
| 2026-04-22 12:13 | 46.11734 | 11.04515 | 37130 ft | 513 kts | 173° |
| 2026-04-22 12:14 | 46.04633 | 11.06238 | 37121 ft | 513 kts | 173° |
| 2026-04-22 12:14 | 45.97539 | 11.07951 | 37111 ft | 514 kts | 173° |
| 2026-04-22 12:15 | 45.90385 | 11.09676 | 37127 ft | 514 kts | 173° |
| 2026-04-22 12:15 | 45.83501 | 11.11333 | 37130 ft | 514 kts | 173° |
| 2026-04-22 12:16 | 45.76353 | 11.13045 | 37133 ft | 515 kts | 173° |
| 2026-04-22 12:16 | 45.69239 | 11.14746 | 37137 ft | 516 kts | 173° |
| 2026-04-22 12:17 | 45.62141 | 11.16444 | 37148 ft | 514 kts | 173° |
| 2026-04-22 12:17 | 45.55071 | 11.18126 | 37166 ft | 515 kts | 174° |
| 2026-04-22 12:18 | 45.47947 | 11.19815 | 37077 ft | 516 kts | 174° |
| 2026-04-22 12:18 | 45.40782 | 11.21513 | 37122 ft | 517 kts | 174° |
| 2026-04-22 12:19 | 45.33677 | 11.23187 | 37137 ft | 518 kts | 174° |
| 2026-04-22 12:19 | 45.26558 | 11.24866 | 37142 ft | 517 kts | 174° |
| 2026-04-22 12:20 | 45.19382 | 11.26550 | 37145 ft | 517 kts | 174° |
| 2026-04-22 12:20 | 45.12249 | 11.28219 | 37149 ft | 519 kts | 174° |
| 2026-04-22 12:21 | 45.05182 | 11.29884 | 36837 ft | 499 kts | 175° |
| 2026-04-22 12:21 | 45.01775 | 11.30686 | 36337 ft | 498 kts | 176° |
| 2026-04-22 12:21 | 44.98371 | 11.31481 | 35709 ft | 501 kts | 176° |
| 2026-04-22 12:22 | 44.94892 | 11.32291 | 35122 ft | 508 kts | 177° |
| 2026-04-22 12:22 | 44.91333 | 11.33114 | 34429 ft | 515 kts | 178° |
| 2026-04-22 12:22 | 44.87751 | 11.33942 | 33546 ft | 520 kts | 178° |
| 2026-04-22 12:22 | 44.84181 | 11.34763 | 32816 ft | 520 kts | 178° |
| 2026-04-22 12:23 | 44.80695 | 11.35564 | 32128 ft | 519 kts | 178° |
| 2026-04-22 12:23 | 44.77311 | 11.36348 | 31670 ft | 513 kts | 178° |
| 2026-04-22 12:23 | 44.73920 | 11.37136 | 31260 ft | 507 kts | 178° |
| 2026-04-22 12:23 | 44.70446 | 11.37940 | 30784 ft | 501 kts | 178° |
| 2026-04-22 12:24 | 44.66967 | 11.38745 | 30275 ft | 496 kts | 178° |
| 2026-04-22 12:24 | 44.63548 | 11.39529 | 29777 ft | 492 kts | 178° |
| 2026-04-22 12:24 | 44.60172 | 11.40302 | 29263 ft | 488 kts | 178° |
| 2026-04-22 12:24 | 44.56828 | 11.41070 | 28744 ft | 484 kts | 179° |
| 2026-04-22 12:25 | 44.53464 | 11.41841 | 28272 ft | 478 kts | 178° |
| 2026-04-22 12:25 | 44.50143 | 11.42600 | 27746 ft | 475 kts | 179° |
| 2026-04-22 12:25 | 44.46915 | 11.43336 | 27276 ft | 470 kts | 178° |
| 2026-04-22 12:25 | 44.43633 | 11.44086 | 26778 ft | 466 kts | 178° |
| 2026-04-22 12:26 | 44.40427 | 11.44819 | 26275 ft | 462 kts | 178° |
| 2026-04-22 12:26 | 44.37273 | 11.45540 | 25781 ft | 458 kts | 178° |
| 2026-04-22 12:26 | 44.34143 | 11.46254 | 25271 ft | 454 kts | 178° |
| 2026-04-22 12:26 | 44.30972 | 11.46978 | 24763 ft | 449 kts | 179° |
| 2026-04-22 12:27 | 44.27907 | 11.47677 | 24311 ft | 445 kts | 179° |
| 2026-04-22 12:27 | 44.24855 | 11.48368 | 23797 ft | 442 kts | 179° |
| 2026-04-22 12:27 | 44.21802 | 11.49057 | 23289 ft | 440 kts | 179° |
| 2026-04-22 12:27 | 44.18753 | 11.49747 | 22848 ft | 435 kts | 179° |
| 2026-04-22 12:28 | 44.15762 | 11.50422 | 22448 ft | 431 kts | 178° |
| 2026-04-22 12:28 | 44.12817 | 11.51082 | 21995 ft | 429 kts | 178° |
| 2026-04-22 12:28 | 44.09842 | 11.51753 | 21549 ft | 425 kts | 177° |
| 2026-04-22 12:28 | 44.06889 | 11.52425 | 21201 ft | 419 kts | 177° |
| 2026-04-22 12:29 | 44.04009 | 11.53082 | 20987 ft | 409 kts | 177° |
| 2026-04-22 12:29 | 44.01240 | 11.53589 | 20824 ft | 392 kts | 187° |
| 2026-04-22 12:29 | 43.98698 | 11.52948 | 20631 ft | 355 kts | 214° |
| 2026-04-22 12:29 | 43.96637 | 11.51273 | 20452 ft | 335 kts | 223° |
| 2026-04-22 12:30 | 43.92690 | 11.47813 | 19710 ft | 332 kts | 222° |
| 2026-04-22 12:30 | 43.90730 | 11.46104 | 19333 ft | 331 kts | 221° |
| 2026-04-22 12:30 | 43.88863 | 11.44472 | 18951 ft | 330 kts | 221° |
| 2026-04-22 12:31 | 43.86927 | 11.42783 | 18540 ft | 329 kts | 221° |
| 2026-04-22 12:31 | 43.84958 | 11.41067 | 18143 ft | 327 kts | 221° |
| 2026-04-22 12:31 | 43.83015 | 11.39371 | 17757 ft | 326 kts | 220° |
| 2026-04-22 12:31 | 43.81082 | 11.37687 | 17367 ft | 324 kts | 220° |
| 2026-04-22 12:32 | 43.79158 | 11.36010 | 16982 ft | 323 kts | 219° |
| 2026-04-22 12:32 | 43.75479 | 11.32534 | 16206 ft | 315 kts | 228° |
| 2026-04-22 12:32 | 43.73917 | 11.30401 | 15808 ft | 310 kts | 234° |
| 2026-04-22 12:33 | 43.72479 | 11.28174 | 15428 ft | 309 kts | 235° |
| 2026-04-22 12:33 | 43.71054 | 11.25931 | 15036 ft | 308 kts | 235° |
| 2026-04-22 12:33 | 43.69609 | 11.23671 | 14645 ft | 308 kts | 234° |
| 2026-04-22 12:33 | 43.68206 | 11.21498 | 14449 ft | 301 kts | 234° |
| 2026-04-22 12:34 | 43.66806 | 11.19338 | 14292 ft | 293 kts | 234° |
| 2026-04-22 12:34 | 43.65453 | 11.17258 | 14132 ft | 285 kts | 234° |
| 2026-04-22 12:34 | 43.64138 | 11.15235 | 13970 ft | 277 kts | 234° |
| 2026-04-22 12:34 | 43.62866 | 11.13291 | 13831 ft | 269 kts | 234° |
| 2026-04-22 12:35 | 43.61622 | 11.11392 | 13619 ft | 259 kts | 234° |
| 2026-04-22 12:35 | 43.60422 | 11.09563 | 13166 ft | 255 kts | 234° |
| 2026-04-22 12:35 | 43.59225 | 11.07734 | 12626 ft | 254 kts | 234° |
| 2026-04-22 12:35 | 43.58051 | 11.05931 | 12112 ft | 253 kts | 233° |
| 2026-04-22 12:36 | 43.56867 | 11.04101 | 11653 ft | 255 kts | 233° |
| 2026-04-22 12:36 | 43.55682 | 11.02279 | 11351 ft | 252 kts | 233° |
| 2026-04-22 12:36 | 43.54511 | 11.00484 | 10903 ft | 249 kts | 233° |
| 2026-04-22 12:36 | 43.53393 | 10.98767 | 10406 ft | 249 kts | 233° |
| 2026-04-22 12:37 | 43.52528 | 10.97439 | 10030 ft | 248 kts | 232° |
| 2026-04-22 12:37 | 43.51377 | 10.95678 | 9613 ft | 243 kts | 232° |
| 2026-04-22 12:37 | 43.50263 | 10.93975 | 9323 ft | 233 kts | 232° |
| 2026-04-22 12:37 | 43.49199 | 10.92293 | 9130 ft | 225 kts | 240° |
| 2026-04-22 12:38 | 43.48706 | 10.90334 | 8839 ft | 212 kts | 277° |
| 2026-04-22 12:38 | 43.49083 | 10.88454 | 8527 ft | 203 kts | 307° |
| 2026-04-22 12:38 | 43.50036 | 10.87056 | 8245 ft | 199 kts | 322° |
| 2026-04-22 12:38 | 43.51048 | 10.85857 | 7970 ft | 201 kts | 322° |
| 2026-04-22 12:39 | 43.52110 | 10.84582 | 7694 ft | 201 kts | 322° |
| 2026-04-22 12:39 | 43.54306 | 10.82352 | 7125 ft | 192 kts | 349° |
| 2026-04-22 12:39 | 43.55603 | 10.82528 | 6676 ft | 193 kts | 22° |
| 2026-04-22 12:40 | 43.56754 | 10.83522 | 6335 ft | 192 kts | 39° |
| 2026-04-22 12:40 | 43.57740 | 10.84782 | 6013 ft | 192 kts | 44° |
| 2026-04-22 12:40 | 43.58693 | 10.86100 | 5708 ft | 189 kts | 45° |
| 2026-04-22 12:40 | 43.59585 | 10.87382 | 5582 ft | 179 kts | 45° |
| 2026-04-22 12:41 | 43.60423 | 10.88619 | 5483 ft | 177 kts | 46° |
| 2026-04-22 12:41 | 43.61270 | 10.89893 | 5381 ft | 177 kts | 46° |
| 2026-04-22 12:41 | 43.62092 | 10.91151 | 5284 ft | 177 kts | 47° |
| 2026-04-22 12:41 | 43.62915 | 10.92421 | 5174 ft | 176 kts | 47° |
| 2026-04-22 12:42 | 43.63730 | 10.93688 | 4954 ft | 176 kts | 47° |
| 2026-04-22 12:42 | 43.64536 | 10.94948 | 4729 ft | 175 kts | 47° |
| 2026-04-22 12:42 | 43.65342 | 10.96208 | 4502 ft | 174 kts | 47° |
| 2026-04-22 12:42 | 43.66147 | 10.97467 | 4270 ft | 173 kts | 47° |
| 2026-04-22 12:43 | 43.66942 | 10.98709 | 4040 ft | 171 kts | 47° |
| 2026-04-22 12:43 | 43.67731 | 10.99940 | 3815 ft | 170 kts | 47° |
| 2026-04-22 12:43 | 43.68423 | 11.01017 | 3618 ft | 170 kts | 47° |
| 2026-04-22 12:43 | 43.69210 | 11.02242 | 3393 ft | 169 kts | 47° |
| 2026-04-22 12:44 | 43.69994 | 11.03460 | 3177 ft | 167 kts | 47° |
| 2026-04-22 12:44 | 43.70757 | 11.04646 | 2952 ft | 163 kts | 47° |
| 2026-04-22 12:44 | 43.71511 | 11.05815 | 2730 ft | 158 kts | 48° |
| 2026-04-22 12:44 | 43.72233 | 11.06934 | 2523 ft | 152 kts | 47° |
| 2026-04-22 12:45 | 43.72930 | 11.08015 | 2324 ft | 147 kts | 46° |
| 2026-04-22 12:45 | 43.73604 | 11.09058 | 2138 ft | 146 kts | 47° |
| 2026-04-22 12:45 | 43.74287 | 11.10113 | 1954 ft | 147 kts | 48° |
| 2026-04-22 12:45 | 43.74966 | 11.11164 | 1774 ft | 146 kts | 48° |
| 2026-04-22 12:46 | 43.75635 | 11.12199 | 1596 ft | 140 kts | 49° |
| 2026-04-22 12:46 | 43.76263 | 11.13171 | 1398 ft | 131 kts | 47° |
| 2026-04-22 12:46 | 43.76860 | 11.14091 | 1218 ft | 130 kts | 49° |
| 2026-04-22 12:46 | 43.77459 | 11.15022 | 1049 ft | 129 kts | 47° |
| 2026-04-22 12:47 | 43.78058 | 11.15949 | 881 ft | 129 kts | 47° |
| 2026-04-22 12:47 | 43.78654 | 11.16892 | 764 ft | 129 kts | 50° |
| 2026-04-22 12:47 | 43.79252 | 11.17804 | 607 ft | 129 kts | 49° |
| 2026-04-22 12:47 | 43.79843 | 11.18724 | 400 ft | 128 kts | 49° |
| 2026-04-22 12:48 | 43.80432 | 11.19629 | 211 ft | 127 kts | 49° |
| 2026-04-22 12:48 | 43.81006 | 11.20514 | 142 ft | 109 kts | 49° |
| 2026-04-22 12:48 | 43.81367 | 11.21067 | 149 ft | 44 kts | 52° |
| 2026-04-22 12:48 | 43.81487 | 11.21300 | 151 ft | 19 kts | 60° |
| 2026-04-22 12:49 | 43.81514 | 11.21295 | 151 ft | 9 kts | 231° |
| 2026-04-22 12:49 | 43.81460 | 11.21216 | 151 ft | 13 kts | 226° |
| 2026-04-22 12:49 | 43.81374 | 11.21077 | 149 ft | 23 kts | 229° |
| 2026-04-22 12:49 | 43.81265 | 11.20909 | 147 ft | 23 kts | 227° |
| 2026-04-22 12:50 | 43.81150 | 11.20734 | 145 ft | 25 kts | 228° |
| 2026-04-22 12:50 | 43.81034 | 11.20552 | 143 ft | 25 kts | 228° |
| 2026-04-22 12:50 | 43.80913 | 11.20368 | 141 ft | 26 kts | 228° |
| 2026-04-22 12:50 | 43.80791 | 11.20175 | 139 ft | 26 kts | 228° |
| 2026-04-22 12:51 | 43.80648 | 11.20022 | 138 ft | 26 kts | 196° |
| 2026-04-22 12:51 | 43.80499 | 11.19970 | 138 ft | 19 kts | 195° |
| 2026-04-22 12:51 | 43.80399 | 11.19968 | 137 ft | 11 kts | 154° |
| 2026-04-22 12:51 | 43.80343 | 11.20053 | 137 ft | 11 kts | 127° |
| 2026-04-22 12:52 | 43.80325 | 11.20085 | 137 ft | 1 kts | 129° |
| 2026-04-22 12:52 | 43.80324 | 11.20087 | 137 ft | 0 kts | 129° |